createdAt,value
2023-09-12T00:00:29.373Z,17.50
2023-09-12T00:02:57.275Z,14.93
2023-09-12T00:05:26.537Z,19.92
2023-09-12T00:07:54.882Z,14.57
2023-09-12T00:10:22.854Z,17.00
2023-09-12T00:12:50.675Z,18.90
2023-09-12T00:15:20.870Z,19.42
2023-09-12T00:17:49.726Z,17.40
2023-09-12T00:20:17.850Z,20.75
2023-09-12T00:22:47.712Z,20.90
2023-09-12T00:25:15.547Z,15.25
2023-09-12T00:27:43.371Z,13.07
2023-09-12T00:30:12.371Z,14.27
2023-09-12T00:32:40.333Z,16.00
2023-09-12T00:35:09.101Z,18.15
2023-09-12T00:37:36.874Z,17.75
2023-09-12T00:40:07.384Z,20.45
2023-09-12T00:42:35.233Z,23.55
2023-09-12T00:45:03.254Z,20.40
2023-09-12T00:47:32.668Z,13.75
2023-09-12T00:50:02.223Z,18.17
2023-09-12T00:52:31.570Z,11.43
2023-09-12T00:54:59.825Z,14.05
2023-09-12T00:57:29.119Z,13.55
2023-09-12T00:59:57.964Z,15.50
2023-09-12T01:02:27.063Z,19.35
2023-09-12T01:04:55.269Z,18.40
2023-09-12T01:07:23.131Z,23.08
2023-09-12T01:09:50.985Z,21.98
2023-09-12T01:12:19.060Z,15.00
2023-09-12T01:14:48.353Z,17.35
2023-09-12T01:17:16.241Z,15.07
2023-09-12T01:19:44.106Z,22.98
2023-09-12T01:22:29.572Z,16.23
2023-09-12T01:25:16.203Z,13.85
2023-09-12T01:27:48.219Z,15.95
2023-09-12T01:30:20.251Z,17.15
2023-09-12T01:32:49.182Z,18.35
2023-09-12T01:35:17.157Z,19.92
2023-09-12T01:37:44.966Z,17.77
2023-09-12T01:40:14.176Z,16.33
2023-09-12T01:42:47.000Z,17.10
2023-09-12T01:45:19.849Z,13.90
2023-09-12T01:47:51.809Z,19.48
2023-09-12T01:50:21.227Z,18.27
2023-09-12T01:52:50.972Z,13.68
2023-09-12T01:55:19.950Z,16.15
2023-09-12T01:57:50.903Z,13.55
2023-09-12T02:00:20.280Z,16.88
2023-09-12T02:02:48.258Z,14.40
2023-09-12T02:05:19.805Z,12.25
2023-09-12T02:07:48.552Z,15.50
2023-09-12T02:10:17.038Z,13.50
2023-09-12T02:12:45.378Z,17.25
2023-09-12T02:15:15.008Z,14.80
2023-09-12T02:17:42.964Z,20.90
2023-09-12T02:20:12.480Z,14.05
2023-09-12T02:22:40.339Z,18.80
2023-09-12T02:25:09.588Z,20.17
2023-09-12T02:27:37.599Z,17.15
2023-09-12T02:30:06.767Z,18.70
2023-09-12T02:32:36.049Z,14.88
2023-09-12T02:35:03.967Z,18.45
2023-09-12T02:37:31.905Z,18.70
2023-09-12T02:39:59.732Z,21.70
2023-09-12T02:42:27.635Z,14.50
2023-09-12T02:44:55.523Z,15.10
2023-09-12T02:47:23.330Z,18.85
2023-09-12T02:49:53.171Z,20.02
2023-09-12T02:52:21.063Z,22.35
2023-09-12T02:54:49.725Z,19.45
2023-09-12T02:57:17.854Z,18.92
2023-09-12T02:59:46.988Z,12.07
2023-09-12T03:02:15.426Z,13.65
2023-09-12T03:04:43.371Z,11.88
2023-09-12T03:07:12.594Z,14.75
2023-09-12T03:09:41.165Z,13.32
2023-09-12T03:12:09.340Z,18.02
2023-09-12T03:14:37.219Z,16.27
2023-09-12T03:17:05.537Z,18.52
2023-09-12T03:19:34.729Z,20.83
2023-09-12T03:22:02.571Z,13.93
2023-09-12T03:24:32.284Z,14.40
2023-09-12T03:27:00.233Z,13.45
2023-09-12T03:29:28.180Z,11.43
2023-09-12T03:31:56.115Z,14.18
2023-09-12T03:34:23.985Z,16.30
2023-09-12T03:36:51.885Z,18.88
2023-09-12T03:39:19.712Z,18.63
2023-09-12T03:41:48.860Z,20.05
2023-09-12T03:44:17.024Z,19.90
2023-09-12T03:46:45.052Z,11.88
2023-09-12T03:49:13.847Z,18.60
2023-09-12T03:51:41.951Z,13.90
2023-09-12T03:54:09.991Z,17.85
2023-09-12T03:56:37.914Z,16.92
2023-09-12T03:59:08.015Z,19.08
2023-09-12T04:01:36.301Z,20.55
2023-09-12T04:04:04.838Z,23.48
2023-09-12T04:06:32.969Z,23.67
2023-09-12T04:09:00.879Z,23.15
2023-09-12T04:11:43.667Z,14.98
2023-09-12T04:14:16.748Z,20.77
2023-09-12T04:16:44.833Z,23.58
2023-09-12T04:19:12.756Z,19.13
2023-09-12T04:21:40.752Z,16.35
2023-09-12T04:24:09.901Z,20.00
2023-09-12T04:26:37.788Z,19.48
2023-09-12T04:29:06.142Z,19.70
2023-09-12T04:31:35.429Z,16.50
2023-09-12T04:34:03.332Z,13.07
2023-09-12T04:36:31.228Z,13.70
2023-09-12T04:38:59.130Z,14.98
2023-09-12T04:41:26.988Z,13.48
2023-09-12T04:43:54.879Z,18.50
2023-09-12T04:46:22.749Z,19.52
2023-09-12T04:48:52.215Z,14.93
2023-09-12T04:51:20.055Z,20.95
2023-09-12T04:53:52.578Z,19.27
2023-09-12T04:56:20.755Z,18.75
2023-09-12T04:58:49.314Z,15.02
2023-09-12T05:01:17.487Z,23.15
2023-09-12T05:03:45.486Z,19.27
2023-09-12T05:06:15.422Z,14.73
2023-09-12T05:08:43.559Z,14.15
2023-09-12T05:11:11.632Z,20.80
2023-09-12T05:13:40.725Z,12.95
2023-09-12T05:16:08.644Z,19.23
2023-09-12T05:18:36.534Z,17.15
2023-09-12T05:21:04.875Z,19.45
2023-09-12T05:23:34.253Z,18.60
2023-09-12T05:26:02.127Z,22.85
2023-09-12T05:28:29.986Z,13.02
2023-09-12T05:30:58.135Z,25.00
2023-09-12T05:33:26.068Z,18.73
2023-09-12T05:35:54.394Z,18.75
2023-09-12T05:38:22.220Z,13.10
2023-09-12T05:40:51.990Z,16.75
2023-09-12T05:43:20.291Z,23.35
2023-09-12T05:45:48.729Z,16.90
2023-09-12T05:48:16.845Z,16.63
2023-09-12T05:50:45.596Z,17.23
2023-09-12T05:53:13.439Z,15.25
2023-09-12T05:55:41.256Z,21.65
2023-09-12T05:58:10.488Z,18.92
2023-09-12T06:00:38.630Z,15.88
2023-09-12T06:03:06.725Z,14.50
2023-09-12T06:05:34.701Z,24.45
2023-09-12T06:08:02.588Z,19.65
2023-09-12T06:10:30.422Z,21.92
2023-09-12T06:12:58.275Z,27.20
2023-09-12T06:15:27.513Z,24.48
2023-09-12T06:17:56.162Z,20.45
2023-09-12T06:20:24.414Z,22.25
2023-09-12T06:22:52.598Z,19.63
2023-09-12T06:25:20.547Z,24.00
2023-09-12T06:27:48.550Z,21.10
2023-09-12T06:30:16.584Z,19.52
2023-09-12T06:32:45.920Z,18.50
2023-09-12T06:35:13.902Z,25.42
2023-09-12T06:37:41.739Z,20.92
2023-09-12T06:40:10.421Z,17.48
2023-09-12T06:42:38.293Z,19.85
2023-09-12T06:45:06.885Z,24.15
2023-09-12T06:47:34.803Z,19.30
2023-09-12T06:50:04.963Z,18.20
2023-09-12T06:55:02.797Z,20.40
2023-09-12T06:57:31.233Z,23.30
2023-09-12T06:59:59.085Z,20.00
2023-09-12T07:02:28.654Z,22.45
2023-09-12T07:04:57.963Z,25.30
2023-09-12T07:07:27.127Z,14.07
2023-09-12T07:10:01.674Z,16.48
2023-09-12T07:12:36.047Z,20.83
2023-09-12T07:15:04.202Z,24.75
2023-09-12T07:17:32.074Z,24.77
2023-09-12T07:20:00.071Z,20.60
2023-09-12T07:22:29.485Z,19.00
2023-09-12T07:24:57.364Z,26.67
2023-09-12T07:27:25.308Z,25.80
2023-09-12T07:29:53.119Z,18.80
2023-09-12T07:32:22.557Z,19.10
2023-09-12T07:34:50.629Z,20.45
2023-09-12T07:37:18.440Z,23.35
2023-09-12T07:39:47.635Z,24.48
2023-09-12T07:42:15.534Z,27.13
2023-09-12T07:44:43.397Z,25.70
2023-09-12T07:47:11.276Z,17.33
2023-09-12T07:49:39.107Z,20.50
2023-09-12T07:52:07.876Z,27.98
2023-09-12T07:54:35.914Z,26.25
2023-09-12T07:57:05.653Z,21.90
2023-09-12T07:59:33.438Z,25.25
2023-09-12T08:02:01.381Z,19.25
2023-09-12T08:04:29.350Z,17.08
2023-09-12T08:06:58.823Z,20.63
2023-09-12T08:09:52.609Z,21.30
2023-09-12T08:12:23.301Z,14.25
2023-09-12T08:14:51.135Z,13.45
2023-09-12T08:17:19.495Z,14.55
2023-09-12T08:19:47.715Z,16.55
2023-09-12T08:22:15.797Z,24.50
2023-09-12T08:24:43.680Z,25.00
2023-09-12T08:27:11.531Z,25.60
2023-09-12T08:29:40.776Z,19.48
2023-09-12T08:32:08.637Z,22.17
2023-09-12T08:34:36.541Z,16.70
2023-09-12T08:37:04.433Z,18.10
2023-09-12T08:39:44.706Z,22.52
2023-09-12T08:42:15.642Z,21.85
2023-09-12T08:44:45.731Z,21.02
2023-09-12T08:47:14.129Z,18.40
2023-09-12T08:49:43.560Z,16.00
2023-09-12T08:52:12.543Z,20.58
2023-09-12T08:54:40.595Z,16.42
2023-09-12T08:57:09.451Z,15.35
2023-09-12T08:59:37.948Z,18.38
2023-09-12T09:02:10.896Z,20.15
2023-09-12T09:04:41.956Z,17.17
2023-09-12T09:07:11.879Z,16.77
2023-09-12T09:09:40.356Z,14.30
2023-09-12T09:12:09.769Z,14.95
2023-09-12T09:14:37.586Z,14.82
2023-09-12T09:17:10.633Z,15.63
2023-09-12T09:19:44.050Z,17.50
2023-09-12T09:22:11.984Z,13.07
2023-09-12T09:24:39.985Z,19.65
2023-09-12T09:27:07.915Z,18.70
2023-09-12T09:29:49.085Z,14.65
2023-09-12T09:32:23.230Z,15.10
2023-09-12T09:34:51.528Z,17.17
2023-09-12T09:37:20.824Z,18.73
2023-09-12T09:39:53.301Z,17.63
2023-09-12T09:42:21.864Z,14.45
2023-09-12T09:44:50.654Z,13.93
2023-09-12T09:47:21.948Z,17.60
2023-09-12T09:49:50.075Z,12.53
2023-09-12T09:52:17.968Z,11.02
2023-09-12T09:54:47.041Z,11.35
2023-09-12T09:57:14.944Z,11.70
2023-09-12T09:59:43.802Z,10.60
2023-09-12T10:02:22.482Z,12.60
2023-09-12T10:07:27.343Z,13.90
2023-09-12T10:09:55.770Z,15.43
2023-09-12T10:12:25.091Z,11.55
2023-09-12T10:14:53.710Z,14.20
2023-09-12T10:17:25.676Z,14.13
2023-09-12T10:19:58.178Z,17.65
2023-09-12T10:22:30.190Z,17.70
2023-09-12T10:27:27.194Z,13.68
2023-09-12T10:29:55.276Z,14.15
2023-09-12T10:32:23.933Z,12.43
2023-09-12T10:34:54.077Z,15.07
2023-09-12T10:37:26.942Z,18.48
2023-09-12T10:39:55.515Z,15.82
2023-09-12T10:42:25.702Z,17.95
2023-09-12T10:44:54.060Z,18.85
2023-09-12T10:47:22.685Z,11.15
2023-09-12T10:49:50.815Z,15.60
2023-09-12T10:52:27.972Z,20.13
2023-09-12T10:54:56.451Z,11.60
2023-09-12T10:57:24.504Z,17.25
2023-09-12T11:00:13.064Z,13.45
2023-09-12T11:02:43.152Z,13.82
2023-09-12T11:05:38.703Z,11.38
2023-09-12T11:08:08.018Z,14.48
2023-09-12T11:10:35.927Z,15.57
2023-09-12T11:13:04.683Z,12.93
2023-09-12T11:15:33.080Z,10.25
2023-09-12T11:18:06.147Z,8.85
2023-09-12T11:20:55.111Z,8.88
2023-09-12T11:23:24.407Z,10.55
2023-09-12T11:26:06.116Z,10.63
2023-09-12T11:28:34.233Z,9.73
2023-09-12T11:31:02.445Z,15.63
2023-09-12T11:33:30.735Z,9.40
2023-09-12T11:36:03.027Z,8.77
2023-09-12T11:38:33.397Z,8.35
2023-09-12T11:41:01.954Z,9.15
2023-09-12T11:43:30.560Z,9.50
2023-09-12T11:45:59.408Z,9.75
2023-09-12T11:48:27.670Z,12.13
2023-09-12T11:50:57.161Z,11.18
2023-09-12T11:53:27.812Z,10.40
2023-09-12T11:55:59.696Z,8.57
2023-09-12T11:58:28.700Z,10.90
2023-09-12T12:00:57.951Z,8.15
2023-09-12T12:03:27.595Z,10.57
2023-09-12T12:05:57.597Z,8.70
2023-09-12T12:08:32.070Z,10.45
2023-09-12T12:11:02.311Z,8.20
2023-09-12T12:13:30.798Z,9.10
2023-09-12T12:15:59.053Z,11.77
2023-09-12T12:18:27.561Z,11.13
2023-09-12T12:20:55.892Z,10.52
2023-09-12T12:23:24.038Z,5.70
2023-09-12T12:25:51.870Z,9.07
2023-09-12T12:28:22.205Z,6.15
2023-09-12T12:30:55.859Z,11.65
2023-09-12T12:34:20.436Z,7.70
2023-09-12T12:36:11.928Z,9.63
2023-09-12T12:38:53.387Z,6.38
2023-09-12T12:41:30.963Z,6.05
2023-09-12T12:44:04.606Z,4.65
2023-09-12T12:46:32.840Z,4.72
2023-09-12T12:49:00.723Z,4.32
2023-09-12T12:51:31.085Z,10.35
2023-09-12T12:54:06.696Z,7.30
2023-09-12T12:56:34.708Z,6.90
2023-09-12T12:59:07.824Z,8.18
2023-09-12T13:01:37.493Z,6.78
2023-09-12T13:04:07.322Z,8.52
2023-09-12T13:06:37.054Z,6.80
2023-09-12T13:09:06.928Z,6.13
2023-09-12T13:11:35.848Z,8.20
2023-09-12T13:14:10.341Z,8.27
2023-09-12T13:16:38.404Z,5.85
2023-09-12T13:19:06.370Z,7.50
2023-09-12T13:21:34.429Z,6.70
2023-09-12T13:24:03.156Z,11.10
2023-09-12T13:26:32.093Z,5.82
2023-09-12T13:28:59.935Z,7.70
2023-09-12T13:31:29.104Z,8.15
2023-09-12T13:33:57.156Z,6.38
2023-09-12T13:36:25.530Z,6.25
2023-09-12T13:38:53.578Z,6.95
2023-09-12T13:41:23.290Z,5.13
2023-09-12T13:43:51.269Z,11.05
2023-09-12T13:46:19.337Z,7.78
2023-09-12T13:48:50.039Z,6.93
2023-09-12T13:51:18.159Z,7.13
2023-09-12T13:53:49.166Z,7.57
2023-09-12T13:56:17.011Z,8.10
2023-09-12T13:58:51.908Z,5.15
2023-09-12T14:01:33.165Z,8.65
2023-09-12T14:04:05.041Z,5.05
2023-09-12T14:06:35.832Z,8.80
2023-09-12T14:09:04.114Z,5.65
2023-09-12T14:11:35.582Z,4.30
2023-09-12T14:14:16.013Z,6.60
2023-09-12T14:16:48.113Z,7.28
2023-09-12T14:21:47.117Z,6.20
2023-09-12T14:24:16.791Z,4.32
2023-09-12T14:26:46.027Z,5.43
2023-09-12T14:29:15.029Z,8.50
2023-09-12T14:31:51.252Z,6.18
2023-09-12T14:34:20.861Z,8.68
2023-09-12T14:36:48.963Z,7.90
2023-09-12T14:39:17.115Z,5.82
2023-09-12T14:41:50.845Z,10.63
2023-09-12T14:44:18.843Z,9.77
2023-09-12T14:46:46.815Z,7.72
2023-09-12T14:49:14.930Z,8.57
2023-09-12T14:51:44.285Z,8.55
2023-09-12T14:54:12.188Z,6.68
2023-09-12T14:56:40.038Z,5.50
2023-09-12T14:59:08.051Z,8.35
2023-09-12T15:01:36.573Z,7.28
2023-09-12T15:04:04.677Z,10.32
2023-09-12T15:06:34.512Z,15.30
2023-09-12T15:09:04.025Z,17.67
2023-09-12T15:11:32.385Z,8.23
2023-09-12T15:14:00.643Z,4.63
2023-09-12T15:16:28.624Z,4.78
2023-09-12T15:18:56.642Z,8.80
2023-09-12T15:21:24.529Z,5.85
2023-09-12T15:23:52.430Z,4.88
2023-09-12T15:26:21.744Z,7.47
2023-09-12T15:28:49.574Z,10.23
2023-09-12T15:31:17.420Z,10.48
2023-09-12T15:33:45.821Z,5.93
2023-09-12T15:36:14.011Z,7.57
2023-09-12T15:38:41.825Z,5.25
2023-09-12T15:41:09.881Z,6.30
2023-09-12T15:43:39.183Z,4.82
2023-09-12T15:46:07.245Z,14.05
2023-09-12T15:48:35.257Z,10.32
2023-09-12T15:51:05.378Z,8.82
2023-09-12T15:53:33.269Z,4.78
2023-09-12T15:56:01.111Z,6.85
2023-09-12T15:58:30.276Z,6.25
2023-09-12T16:01:01.121Z,4.57
2023-09-12T16:03:29.211Z,7.53
2023-09-12T16:05:57.121Z,4.75
2023-09-12T16:08:24.954Z,3.83
2023-09-12T16:10:53.049Z,3.40
2023-09-12T16:13:21.076Z,4.85
2023-09-12T16:15:48.910Z,4.38
2023-09-12T16:18:18.173Z,3.63
2023-09-12T16:20:46.030Z,3.63
2023-09-12T16:23:13.890Z,6.70
2023-09-12T16:25:41.702Z,7.72
2023-09-12T16:28:09.577Z,3.97
2023-09-12T16:30:38.830Z,6.07
2023-09-12T16:33:07.482Z,8.90
2023-09-12T16:35:36.721Z,5.22
2023-09-12T16:38:04.760Z,4.68
2023-09-12T16:40:33.468Z,4.13
2023-09-12T16:43:01.341Z,4.10
2023-09-12T16:45:29.240Z,6.35
2023-09-12T16:47:57.364Z,4.07
2023-09-12T16:50:26.995Z,4.03
2023-09-12T16:52:56.189Z,4.13
2023-09-12T16:55:24.012Z,3.85
2023-09-12T16:57:51.856Z,4.72
2023-09-12T17:00:19.871Z,8.48
2023-09-12T17:02:47.843Z,5.85
2023-09-12T17:05:15.843Z,4.22
2023-09-12T17:07:44.078Z,3.88
2023-09-12T17:10:13.252Z,7.22
2023-09-12T17:12:41.168Z,4.68
2023-09-12T17:15:12.758Z,6.30
2023-09-12T17:17:40.631Z,5.95
2023-09-12T17:20:09.216Z,4.10
2023-09-12T17:22:37.112Z,6.10
2023-09-12T17:25:05.353Z,5.40
2023-09-12T17:27:36.330Z,3.97
2023-09-12T17:30:06.413Z,4.70
2023-09-12T17:32:34.293Z,4.00
2023-09-12T17:35:03.930Z,3.92
2023-09-12T17:37:31.885Z,6.72
2023-09-12T17:39:59.742Z,4.22
2023-09-12T17:42:28.322Z,3.22
2023-09-12T17:44:57.546Z,3.35
2023-09-12T17:47:25.450Z,8.05
2023-09-12T17:49:57.401Z,4.07
2023-09-12T17:52:25.338Z,3.88
2023-09-12T17:54:53.239Z,6.07
2023-09-12T17:57:21.134Z,6.00
2023-09-12T17:59:49.599Z,4.22
2023-09-12T18:02:18.815Z,6.50
2023-09-12T18:04:46.688Z,6.28
2023-09-12T18:07:14.614Z,4.15
2023-09-12T18:09:42.429Z,5.80
2023-09-12T18:12:10.273Z,2.95
2023-09-12T18:14:38.118Z,5.50
2023-09-12T18:17:06.354Z,2.92
2023-09-12T18:19:36.480Z,5.78
2023-09-12T18:22:04.974Z,6.97
2023-09-12T18:24:33.079Z,6.55
2023-09-12T18:27:00.945Z,4.60
2023-09-12T18:29:28.795Z,3.45
2023-09-12T18:31:56.648Z,7.18
2023-09-12T18:34:24.430Z,7.85
2023-09-12T18:36:55.143Z,4.95
2023-09-12T18:39:23.016Z,5.82
2023-09-12T18:41:50.937Z,3.83
2023-09-12T18:44:18.779Z,5.38
2023-09-12T18:46:46.703Z,5.10
2023-09-12T18:49:14.626Z,4.85
2023-09-12T18:51:42.582Z,4.07
2023-09-12T18:54:19.677Z,4.05
2023-09-12T18:56:47.527Z,8.38
2023-09-12T18:59:15.387Z,3.33
2023-09-12T19:01:44.220Z,4.60
2023-09-12T19:04:25.382Z,5.65
2023-09-12T19:06:53.636Z,5.68
2023-09-12T19:09:23.224Z,4.03
2023-09-12T19:11:51.454Z,5.05
2023-09-12T19:14:19.320Z,4.55
2023-09-12T19:16:47.512Z,3.88
2023-09-12T19:19:15.421Z,5.00
2023-09-12T19:21:43.480Z,5.00
2023-09-12T19:24:12.010Z,5.82
2023-09-12T19:26:41.316Z,4.38
2023-09-12T19:29:09.184Z,5.63
2023-09-12T19:31:37.174Z,3.72
2023-09-12T19:34:06.385Z,3.25
2023-09-12T19:36:34.306Z,5.53
2023-09-12T19:39:02.788Z,5.40
2023-09-12T19:41:30.917Z,4.75
2023-09-12T19:44:00.271Z,7.05
2023-09-12T19:46:28.202Z,5.25
2023-09-12T19:48:56.240Z,7.30
2023-09-12T19:51:24.184Z,4.47
2023-09-12T19:53:52.301Z,6.57
2023-09-12T19:56:20.173Z,7.70
2023-09-12T19:58:47.989Z,7.00
2023-09-12T20:01:17.316Z,5.40
2023-09-12T20:03:45.430Z,5.72
2023-09-12T20:06:13.577Z,4.22
2023-09-12T20:08:41.428Z,4.45
2023-09-12T20:11:10.167Z,4.82
2023-09-12T20:13:38.017Z,5.53
2023-09-12T20:16:06.295Z,5.63
2023-09-12T20:18:35.623Z,5.95
2023-09-12T20:21:04.051Z,5.70
2023-09-12T20:23:31.890Z,5.55
2023-09-12T20:26:01.869Z,6.00
2023-09-12T20:28:30.289Z,7.60
2023-09-12T20:30:58.277Z,5.60
2023-09-12T20:33:26.159Z,4.43
2023-09-12T20:35:55.634Z,6.32
2023-09-12T20:38:23.820Z,8.00
2023-09-12T20:40:51.667Z,5.20
2023-09-12T20:43:19.552Z,3.85
2023-09-12T20:45:48.753Z,7.22
2023-09-12T20:48:18.951Z,6.57
2023-09-12T20:50:47.087Z,5.85
2023-09-12T20:53:17.905Z,7.72
2023-09-12T20:55:46.222Z,6.13
2023-09-12T20:58:14.342Z,8.25
2023-09-12T21:00:42.532Z,7.68
2023-09-12T21:03:10.680Z,7.28
2023-09-12T21:05:38.692Z,6.22
2023-09-12T21:08:06.676Z,8.70
2023-09-12T21:10:35.912Z,6.70
2023-09-12T21:13:03.850Z,8.50
2023-09-12T21:15:32.632Z,8.52
2023-09-12T21:18:00.671Z,6.93
2023-09-12T21:20:28.500Z,8.18
2023-09-12T21:22:56.453Z,8.63
2023-09-12T21:25:24.999Z,8.70
2023-09-12T21:27:54.221Z,8.48
2023-09-12T21:30:22.171Z,7.93
2023-09-12T21:32:50.072Z,6.28
2023-09-12T21:35:19.812Z,9.07
2023-09-12T21:37:48.995Z,13.27
2023-09-12T21:40:17.430Z,10.57
2023-09-12T21:42:45.749Z,10.35
2023-09-12T21:45:16.066Z,10.13
2023-09-12T21:47:45.145Z,13.70
2023-09-12T21:50:13.788Z,9.02
2023-09-12T21:52:42.101Z,9.48
2023-09-12T21:55:10.680Z,10.68
2023-09-12T21:57:38.726Z,12.45
2023-09-12T22:00:19.517Z,9.75
2023-09-12T22:06:36.198Z,15.55
2023-09-12T22:09:05.977Z,9.05
2023-09-12T22:11:33.998Z,18.20
2023-09-12T22:14:01.807Z,12.35
2023-09-12T22:16:29.743Z,15.88
2023-09-12T22:18:57.757Z,15.65
2023-09-12T22:21:25.659Z,12.73
2023-09-12T22:23:54.812Z,10.45
2023-09-12T22:26:22.657Z,14.05
2023-09-12T22:28:50.444Z,8.98
2023-09-12T22:31:18.366Z,8.95
2023-09-12T22:33:46.493Z,10.02
2023-09-12T22:36:19.383Z,8.35
2023-09-12T22:38:48.016Z,7.00
2023-09-12T22:41:17.526Z,10.15
2023-09-12T22:43:45.615Z,10.52
2023-09-12T22:46:13.758Z,18.10
2023-09-12T22:48:41.699Z,7.30
2023-09-12T22:51:09.606Z,8.02
2023-09-12T22:53:37.427Z,11.85
2023-09-12T22:56:05.482Z,11.23
2023-09-12T22:58:34.647Z,11.57
2023-09-12T23:01:03.840Z,8.10
2023-09-12T23:03:31.850Z,8.85
2023-09-12T23:06:01.666Z,12.13
2023-09-12T23:08:29.507Z,6.32
2023-09-12T23:10:57.318Z,8.35
2023-09-12T23:13:25.152Z,6.32
2023-09-12T23:15:54.775Z,6.40
2023-09-12T23:18:22.642Z,6.88
2023-09-12T23:20:50.469Z,5.63
2023-09-12T23:23:18.323Z,8.05
2023-09-12T23:25:46.106Z,6.88
2023-09-12T23:28:14.113Z,4.72
2023-09-12T23:30:42.661Z,5.80
2023-09-12T23:33:11.982Z,7.22
2023-09-12T23:35:43.326Z,4.30
2023-09-12T23:40:39.847Z,7.15
2023-09-12T23:43:07.740Z,8.73
2023-09-12T23:45:35.629Z,7.10
2023-09-12T23:48:04.539Z,6.70
2023-09-12T23:50:34.038Z,5.68
2023-09-12T23:53:01.878Z,6.20
2023-09-12T23:55:29.769Z,5.95
2023-09-12T23:57:57.672Z,8.02
